createdAt,value
2018-05-16T00:01:51.849Z,9.03
2018-05-16T00:04:19.257Z,11.33
2018-05-16T00:06:48.197Z,10.17
2018-05-16T00:09:15.624Z,9.93
2018-05-16T00:11:44.125Z,8.87
2018-05-16T00:14:11.528Z,10.07
2018-05-16T00:16:40.293Z,9.20
2018-05-16T00:19:07.708Z,9.80
2018-05-16T00:21:35.124Z,9.80
2018-05-16T00:24:02.576Z,8.97
2018-05-16T00:26:30.017Z,10.20
2018-05-16T00:28:57.428Z,9.80
2018-05-16T00:31:25.099Z,11.27
2018-05-16T00:33:52.526Z,10.23
2018-05-16T00:36:19.932Z,10.63
2018-05-16T00:38:47.353Z,8.30
2018-05-16T00:41:15.515Z,9.13
2018-05-16T00:43:42.933Z,9.13
2018-05-16T00:46:10.331Z,9.37
2018-05-16T00:48:37.753Z,9.30
2018-05-16T00:51:16.860Z,9.47
2018-05-16T00:53:46.157Z,9.53
2018-05-16T00:56:13.560Z,8.67
2018-05-16T00:58:40.960Z,9.80
2018-05-16T01:01:08.382Z,9.20
2018-05-16T01:03:35.775Z,10.57
2018-05-16T01:06:03.190Z,11.03
2018-05-16T01:08:30.597Z,9.60
2018-05-16T01:10:57.995Z,9.63
2018-05-16T01:13:25.421Z,10.40
2018-05-16T01:15:52.819Z,11.20
2018-05-16T01:18:20.228Z,9.80
2018-05-16T01:20:47.648Z,9.67
2018-05-16T01:23:15.052Z,9.80
2018-05-16T01:25:42.457Z,10.27
2018-05-16T01:28:09.887Z,11.57
2018-05-16T01:30:37.290Z,11.50
2018-05-16T01:33:04.692Z,10.83
2018-05-16T01:35:32.112Z,10.70
2018-05-16T01:37:59.528Z,10.17
2018-05-16T01:40:26.939Z,10.27
2018-05-16T01:42:54.364Z,11.03
2018-05-16T01:45:21.797Z,11.63
2018-05-16T01:47:49.236Z,11.27
2018-05-16T01:50:16.649Z,11.90
2018-05-16T01:52:44.069Z,11.13
2018-05-16T01:55:11.800Z,11.80
2018-05-16T01:57:40.156Z,10.77
2018-05-16T02:00:07.635Z,14.03
2018-05-16T02:02:35.064Z,13.70
2018-05-16T02:05:02.505Z,14.07
2018-05-16T02:07:29.925Z,12.90
2018-05-16T02:09:57.376Z,13.03
2018-05-16T02:12:24.839Z,12.70
2018-05-16T02:14:52.251Z,13.43
2018-05-16T02:17:20.057Z,14.80
2018-05-16T02:19:47.471Z,14.07
2018-05-16T02:22:14.920Z,14.23
2018-05-16T02:24:42.351Z,17.17
2018-05-16T02:27:09.796Z,16.33
2018-05-16T02:29:37.232Z,15.33
2018-05-16T02:32:04.653Z,14.17
2018-05-16T02:34:32.541Z,16.00
2018-05-16T02:36:59.952Z,15.57
2018-05-16T02:39:27.372Z,13.27
2018-05-16T02:41:54.795Z,14.00
2018-05-16T02:44:22.240Z,19.23
2018-05-16T02:46:49.929Z,14.20
2018-05-16T02:49:17.355Z,14.97
2018-05-16T02:51:44.759Z,17.47
2018-05-16T02:54:12.719Z,15.03
2018-05-16T02:56:40.149Z,13.60
2018-05-16T02:59:07.624Z,14.33
2018-05-16T03:01:35.028Z,13.77
2018-05-16T03:04:02.456Z,13.60
2018-05-16T03:06:29.884Z,13.30
2018-05-16T03:08:57.858Z,12.80
2018-05-16T03:11:25.313Z,14.07
2018-05-16T03:13:52.721Z,11.93
2018-05-16T03:16:20.181Z,13.23
2018-05-16T03:18:47.596Z,14.73
2018-05-16T03:21:15.490Z,14.10
2018-05-16T03:23:42.896Z,13.53
2018-05-16T03:26:10.325Z,14.60
2018-05-16T03:28:37.731Z,16.20
2018-05-16T03:31:05.337Z,15.23
2018-05-16T03:33:32.739Z,30.30
2018-05-16T03:36:00.205Z,15.60
2018-05-16T03:38:27.629Z,15.70
2018-05-16T03:40:55.054Z,15.53
2018-05-16T03:43:22.460Z,15.17
2018-05-16T03:45:49.915Z,14.67
2018-05-16T03:48:17.323Z,15.53
2018-05-16T03:50:45.681Z,14.40
2018-05-16T03:53:13.137Z,15.10
2018-05-16T03:55:40.552Z,14.80
2018-05-16T03:58:20.809Z,16.10
2018-05-16T04:04:13.076Z,15.10
2018-05-16T04:06:40.523Z,14.13
2018-05-16T04:09:07.978Z,16.20
2018-05-16T04:11:35.397Z,16.70
2018-05-16T04:14:02.826Z,14.47
2018-05-16T04:16:30.235Z,15.80
2018-05-16T04:18:57.980Z,15.73
2018-05-16T04:21:25.424Z,15.20
2018-05-16T04:23:52.839Z,13.07
2018-05-16T04:26:20.261Z,15.13
2018-05-16T04:28:47.697Z,14.90
2018-05-16T04:31:15.149Z,14.90
2018-05-16T04:33:42.572Z,15.67
2018-05-16T04:36:10.028Z,15.00
2018-05-16T04:38:37.456Z,17.63
2018-05-16T04:41:04.887Z,15.10
2018-05-16T04:43:32.335Z,16.00
2018-05-16T04:45:59.749Z,13.53
2018-05-16T04:48:27.184Z,13.63
2018-05-16T04:50:54.596Z,15.33
2018-05-16T04:53:22.032Z,13.77
2018-05-16T04:55:49.463Z,13.27
2018-05-16T04:58:16.880Z,15.17
2018-05-16T05:00:44.312Z,12.23
2018-05-16T05:03:11.730Z,11.60
2018-05-16T05:05:39.148Z,11.77
2018-05-16T05:08:06.578Z,10.73
2018-05-16T05:10:33.983Z,10.80
2018-05-16T05:13:01.416Z,11.20
2018-05-16T05:15:28.839Z,11.55
2018-05-16T05:17:56.301Z,11.00
2018-05-16T05:20:24.721Z,9.82
2018-05-16T05:22:52.134Z,10.82
2018-05-16T05:25:19.532Z,9.88
2018-05-16T05:27:46.952Z,10.13
2018-05-16T05:30:14.428Z,10.05
2018-05-16T05:32:41.779Z,9.65
2018-05-16T05:35:09.208Z,9.55
2018-05-16T05:37:36.623Z,10.55
2018-05-16T05:40:04.684Z,10.80
2018-05-16T05:42:32.165Z,10.95
2018-05-16T05:44:59.584Z,10.70
2018-05-16T05:47:27.024Z,10.77
2018-05-16T05:49:54.440Z,13.45
2018-05-16T05:52:21.843Z,12.35
2018-05-16T05:54:49.264Z,10.73
2018-05-16T05:57:16.675Z,11.90
2018-05-16T05:59:44.110Z,12.32
2018-05-16T06:02:11.519Z,12.13
2018-05-16T06:04:39.718Z,11.40
2018-05-16T06:07:07.297Z,12.50
2018-05-16T06:09:34.744Z,11.80
2018-05-16T06:12:02.422Z,11.02
2018-05-16T06:14:29.992Z,10.70
2018-05-16T06:16:57.552Z,11.18
2018-05-16T06:19:25.321Z,12.23
2018-05-16T06:21:52.778Z,11.87
2018-05-16T06:24:21.143Z,11.23
2018-05-16T06:26:49.849Z,12.90
2018-05-16T06:29:18.691Z,12.70
2018-05-16T06:31:47.206Z,12.53
2018-05-16T06:34:14.746Z,12.90
2018-05-16T06:36:42.218Z,12.47
2018-05-16T06:39:10.291Z,13.57
2018-05-16T06:41:37.672Z,14.17
2018-05-16T06:44:05.108Z,12.57
2018-05-16T06:46:34.909Z,13.27
2018-05-16T06:49:04.355Z,12.63
2018-05-16T06:51:33.285Z,13.40
2018-05-16T06:54:00.988Z,19.60
2018-05-16T06:56:32.451Z,31.37
2018-05-16T06:58:59.887Z,13.20
2018-05-16T07:01:27.828Z,17.27
2018-05-16T07:03:55.254Z,18.60
2018-05-16T07:06:22.714Z,14.97
2018-05-16T07:08:50.299Z,17.67
2018-05-16T07:11:17.704Z,12.50
2018-05-16T07:13:45.599Z,13.30
2018-05-16T07:16:13.184Z,13.90
2018-05-16T07:18:44.003Z,12.87
2018-05-16T07:21:11.459Z,14.57
2018-05-16T07:23:39.191Z,15.70
2018-05-16T07:26:07.330Z,14.30
2018-05-16T07:28:35.243Z,15.50
2018-05-16T07:31:04.736Z,13.23
2018-05-16T07:33:32.153Z,19.53
2018-05-16T07:36:09.702Z,14.93
2018-05-16T07:38:37.156Z,13.60
2018-05-16T07:41:04.696Z,25.20
2018-05-16T07:43:32.057Z,18.17
2018-05-16T07:45:59.472Z,18.40
2018-05-16T07:48:26.907Z,17.60
2018-05-16T07:50:54.324Z,17.77
2018-05-16T07:53:21.733Z,16.23
2018-05-16T07:55:49.153Z,15.03
2018-05-16T07:58:16.559Z,15.00
2018-05-16T08:00:43.987Z,14.80
2018-05-16T08:03:11.492Z,18.43
2018-05-16T08:05:38.818Z,18.03
2018-05-16T08:08:06.287Z,28.50
2018-05-16T08:10:33.777Z,15.73
2018-05-16T08:13:02.162Z,14.43
2018-05-16T08:15:29.572Z,16.63
2018-05-16T08:17:56.983Z,17.13
2018-05-16T08:20:24.416Z,21.83
2018-05-16T08:22:51.824Z,15.20
2018-05-16T08:25:19.244Z,13.73
2018-05-16T08:27:46.658Z,15.57
2018-05-16T08:30:14.095Z,14.10
2018-05-16T08:32:41.524Z,14.83
2018-05-16T08:35:08.932Z,17.30
2018-05-16T08:37:36.365Z,15.50
2018-05-16T08:40:04.385Z,14.23
2018-05-16T08:42:31.803Z,14.57
2018-05-16T08:44:59.224Z,14.40
2018-05-16T08:47:26.626Z,15.93
2018-05-16T08:49:54.066Z,14.67
2018-05-16T08:52:21.504Z,13.10
2018-05-16T08:54:48.944Z,16.87
2018-05-16T08:57:16.368Z,16.60
2018-05-16T08:59:43.775Z,14.80
2018-05-16T09:02:11.196Z,15.17
2018-05-16T09:04:38.618Z,13.93
2018-05-16T09:07:06.060Z,18.90
2018-05-16T09:09:33.474Z,16.57
2018-05-16T09:12:00.940Z,16.17
2018-05-16T09:14:28.348Z,14.30
2018-05-16T09:16:55.757Z,17.43
2018-05-16T09:19:23.180Z,13.90
2018-05-16T09:21:50.608Z,14.93
2018-05-16T09:24:18.078Z,15.77
2018-05-16T09:26:45.483Z,18.73
2018-05-16T09:29:12.892Z,14.83
2018-05-16T09:31:40.659Z,13.33
2018-05-16T09:34:08.072Z,16.50
2018-05-16T09:36:35.500Z,21.03
2018-05-16T09:39:02.932Z,16.07
2018-05-16T09:41:30.333Z,16.30
2018-05-16T09:43:57.765Z,14.47
2018-05-16T09:46:25.170Z,15.13
2018-05-16T09:48:52.889Z,14.33
2018-05-16T09:51:20.320Z,18.20
2018-05-16T09:53:47.731Z,17.10
2018-05-16T09:56:15.165Z,14.43
2018-05-16T09:58:42.603Z,13.90
2018-05-16T10:01:10.013Z,15.15
2018-05-16T10:03:37.447Z,14.83
2018-05-16T10:06:04.887Z,14.80
2018-05-16T10:08:32.316Z,14.53
2018-05-16T10:10:59.755Z,22.20
2018-05-16T10:13:27.167Z,15.27
2018-05-16T10:15:55.532Z,15.37
2018-05-16T10:18:23.016Z,15.70
2018-05-16T10:20:50.469Z,14.17
2018-05-16T10:23:17.896Z,16.77
2018-05-16T10:25:46.039Z,17.37
2018-05-16T10:28:13.448Z,16.80
2018-05-16T10:30:40.887Z,15.00
2018-05-16T10:33:08.370Z,17.93
2018-05-16T10:35:35.799Z,16.73
2018-05-16T10:38:03.250Z,17.07
2018-05-16T10:40:30.968Z,17.70
2018-05-16T10:42:58.425Z,16.77
2018-05-16T10:45:25.839Z,18.47
2018-05-16T10:47:53.271Z,14.60
2018-05-16T10:50:20.688Z,17.00
2018-05-16T10:52:48.136Z,16.30
2018-05-16T10:55:17.114Z,17.33
2018-05-16T10:57:44.532Z,16.50
2018-05-16T11:00:15.033Z,19.90
2018-05-16T11:02:42.517Z,17.37
2018-05-16T11:05:10.420Z,19.60
2018-05-16T11:07:38.206Z,18.77
2018-05-16T11:10:07.648Z,20.93
2018-05-16T11:12:37.383Z,19.97
2018-05-16T11:15:04.835Z,18.67
2018-05-16T11:17:33.269Z,20.47
2018-05-16T11:20:02.881Z,19.80
2018-05-16T11:22:31.025Z,20.03
2018-05-16T11:24:58.660Z,17.67
2018-05-16T11:27:27.360Z,18.67
2018-05-16T11:29:55.253Z,19.70
2018-05-16T11:32:23.663Z,18.77
2018-05-16T11:34:51.364Z,17.07
2018-05-16T11:37:20.267Z,17.47
2018-05-16T11:39:47.758Z,20.07
2018-05-16T11:42:15.185Z,16.60
2018-05-16T11:44:42.676Z,17.90
2018-05-16T11:47:11.280Z,16.50
2018-05-16T11:49:39.290Z,17.43
2018-05-16T11:52:06.699Z,17.73
2018-05-16T11:54:34.435Z,18.77
2018-05-16T11:57:01.852Z,18.53
2018-05-16T11:59:29.280Z,17.97
2018-05-16T12:01:56.708Z,16.77
2018-05-16T12:04:24.148Z,27.27
2018-05-16T12:06:52.537Z,17.13
2018-05-16T12:09:19.969Z,17.53
2018-05-16T12:11:47.382Z,17.67
2018-05-16T12:14:15.102Z,20.27
2018-05-16T12:16:42.610Z,21.50
2018-05-16T12:19:10.991Z,19.07
2018-05-16T12:21:38.429Z,19.57
2018-05-16T12:24:05.780Z,20.80
2018-05-16T12:26:33.242Z,21.67
2018-05-16T12:29:00.681Z,20.17
2018-05-16T12:31:28.092Z,22.47
2018-05-16T12:33:55.889Z,23.90
2018-05-16T12:36:23.301Z,20.57
2018-05-16T12:38:50.732Z,17.90
2018-05-16T12:41:18.184Z,18.30
2018-05-16T12:43:45.616Z,20.70
2018-05-16T12:46:13.042Z,20.03
2018-05-16T12:48:40.472Z,20.23
2018-05-16T12:51:07.879Z,17.27
2018-05-16T12:53:35.337Z,20.43
2018-05-16T12:56:08.351Z,16.87
2018-05-16T12:58:37.504Z,16.45
2018-05-16T13:01:04.970Z,15.73
2018-05-16T13:03:32.820Z,14.80
2018-05-16T13:06:03.381Z,14.20
2018-05-16T13:08:33.928Z,14.10
2018-05-16T13:11:01.421Z,16.17
2018-05-16T13:13:31.949Z,18.55
2018-05-16T13:16:00.500Z,14.70
2018-05-16T13:18:28.337Z,15.65
2018-05-16T13:20:58.052Z,17.42
2018-05-16T13:23:25.489Z,16.20
2018-05-16T13:25:52.905Z,21.62
2018-05-16T13:28:20.319Z,19.23
2018-05-16T13:30:47.743Z,17.55
2018-05-16T13:33:15.148Z,17.52
2018-05-16T13:35:42.729Z,15.68
2018-05-16T13:38:10.140Z,18.83
2018-05-16T13:40:37.569Z,19.08
2018-05-16T13:43:04.988Z,19.75
2018-05-16T13:45:32.402Z,27.42
2018-05-16T13:47:59.823Z,26.15
2018-05-16T13:50:27.608Z,21.50
2018-05-16T13:52:55.028Z,20.23
2018-05-16T13:55:22.437Z,20.02
2018-05-16T13:57:49.879Z,25.52
2018-05-16T14:00:17.300Z,20.92
2018-05-16T14:02:44.733Z,22.30
2018-05-16T14:05:12.170Z,19.90
2018-05-16T14:07:39.627Z,22.55
2018-05-16T14:10:07.064Z,22.37
2018-05-16T14:12:34.482Z,24.27
2018-05-16T14:15:01.898Z,23.15
2018-05-16T14:17:29.319Z,23.25
2018-05-16T14:19:56.837Z,22.20
2018-05-16T14:22:24.148Z,21.65
2018-05-16T14:24:51.880Z,23.20
2018-05-16T14:27:19.295Z,23.33
2018-05-16T14:29:46.705Z,22.42
2018-05-16T14:32:14.132Z,23.85
2018-05-16T14:34:41.545Z,23.20
2018-05-16T14:37:08.979Z,25.42
2018-05-16T14:39:36.400Z,19.92
2018-05-16T14:42:03.836Z,21.37
2018-05-16T14:44:31.252Z,19.98
2018-05-16T14:46:58.695Z,18.58
2018-05-16T14:49:26.133Z,19.73
2018-05-16T14:51:53.573Z,20.48
2018-05-16T14:54:20.971Z,23.00
2018-05-16T14:56:48.409Z,29.67
2018-05-16T14:59:15.816Z,26.65
2018-05-16T15:01:43.274Z,22.00
2018-05-16T15:04:10.689Z,26.90
2018-05-16T15:06:38.124Z,23.62
2018-05-16T15:09:05.528Z,20.10
2018-05-16T15:11:32.944Z,22.27
2018-05-16T15:14:00.519Z,21.93
2018-05-16T15:16:27.936Z,20.65
2018-05-16T15:18:55.430Z,21.67
2018-05-16T15:21:23.166Z,22.67
2018-05-16T15:23:50.550Z,21.80
2018-05-16T15:26:17.955Z,20.08
2018-05-16T15:28:45.380Z,23.07
2018-05-16T15:31:12.875Z,22.10
2018-05-16T15:33:40.528Z,22.73
2018-05-16T15:36:07.949Z,22.40
2018-05-16T15:38:35.379Z,21.93
2018-05-16T15:41:02.807Z,27.77
2018-05-16T15:43:30.225Z,22.40
2018-05-16T15:45:57.795Z,23.10
2018-05-16T15:48:25.785Z,26.73
2018-05-16T15:50:53.203Z,24.03
2018-05-16T15:53:20.623Z,26.50
2018-05-16T15:55:48.724Z,24.47
2018-05-16T15:58:16.153Z,23.63
2018-05-16T16:00:43.568Z,23.47
2018-05-16T16:03:10.976Z,23.27
2018-05-16T16:05:38.404Z,20.67
2018-05-16T16:08:06.710Z,15.17
2018-05-16T16:10:34.035Z,17.23
2018-05-16T16:13:01.451Z,20.87
2018-05-16T16:15:28.877Z,14.93
2018-05-16T16:17:56.321Z,19.23
2018-05-16T16:20:23.733Z,15.63
2018-05-16T16:22:51.296Z,11.97
2018-05-16T16:25:18.699Z,12.20
2018-05-16T16:27:46.117Z,13.37
2018-05-16T16:30:13.540Z,10.70
2018-05-16T16:32:40.948Z,16.93
2018-05-16T16:35:08.380Z,11.07
2018-05-16T16:37:37.262Z,14.30
2018-05-16T16:40:04.735Z,10.87
2018-05-16T16:42:32.268Z,10.83
2018-05-16T16:44:59.699Z,8.97
2018-05-16T16:47:27.095Z,9.90
2018-05-16T16:49:54.922Z,8.97
2018-05-16T16:52:22.541Z,9.30
2018-05-16T16:54:50.072Z,8.77
2018-05-16T16:57:17.919Z,9.30
2018-05-16T16:59:45.289Z,10.73
2018-05-16T17:02:12.961Z,9.93
2018-05-16T17:04:40.413Z,14.33
2018-05-16T17:07:07.827Z,9.57
2018-05-16T17:09:35.449Z,14.23
2018-05-16T17:12:02.955Z,9.97
2018-05-16T17:14:30.376Z,11.07
2018-05-16T17:16:57.957Z,8.33
2018-05-16T17:19:25.355Z,10.07
2018-05-16T17:21:52.770Z,9.03
2018-05-16T17:24:20.185Z,12.13
2018-05-16T17:26:47.682Z,10.13
2018-05-16T17:29:15.016Z,11.83
2018-05-16T17:31:42.523Z,10.80
2018-05-16T17:34:10.444Z,12.43
2018-05-16T17:36:37.863Z,10.47
2018-05-16T17:39:05.689Z,11.77
2018-05-16T17:41:33.116Z,10.63
2018-05-16T17:44:00.648Z,10.40
2018-05-16T17:46:28.136Z,10.80
2018-05-16T17:48:55.663Z,11.70
2018-05-16T17:51:23.606Z,10.23
2018-05-16T17:53:51.176Z,12.10
2018-05-16T17:56:18.427Z,13.37
2018-05-16T17:58:45.935Z,15.07
2018-05-16T18:01:13.403Z,11.10
2018-05-16T18:03:41.144Z,12.43
2018-05-16T18:06:08.700Z,13.50
2018-05-16T18:08:36.119Z,13.60
2018-05-16T18:11:03.532Z,17.47
2018-05-16T18:16:46.364Z,16.10
2018-05-16T18:19:14.096Z,14.70
2018-05-16T18:21:41.514Z,15.93
2018-05-16T18:24:08.926Z,14.23
2018-05-16T18:26:36.357Z,17.90
2018-05-16T18:29:03.768Z,14.10
2018-05-16T18:31:31.196Z,12.33
2018-05-16T18:33:58.632Z,16.70
2018-05-16T18:36:26.016Z,17.03
2018-05-16T18:38:53.441Z,16.37
2018-05-16T18:41:20.847Z,15.60
2018-05-16T18:43:48.296Z,19.03
2018-05-16T18:46:15.712Z,12.93
2018-05-16T18:48:43.228Z,14.37
2018-05-16T18:51:10.845Z,19.93
2018-05-16T18:53:38.294Z,18.90
2018-05-16T18:56:05.745Z,23.20
2018-05-16T18:58:33.173Z,18.17
2018-05-16T19:01:00.639Z,18.90
2018-05-16T19:03:28.199Z,15.47
2018-05-16T19:05:55.615Z,19.80
2018-05-16T19:08:23.031Z,26.10
2018-05-16T19:10:50.473Z,20.73
2018-05-16T19:13:18.000Z,22.23
2018-05-16T19:15:45.460Z,21.40
2018-05-16T19:18:12.876Z,25.77
2018-05-16T19:20:40.320Z,18.67
2018-05-16T19:23:07.805Z,18.77
2018-05-16T19:25:35.624Z,21.30
2018-05-16T19:28:03.072Z,22.90
2018-05-16T19:30:30.522Z,18.97
2018-05-16T19:32:58.053Z,24.90
2018-05-16T19:35:28.044Z,26.27
2018-05-16T19:37:56.187Z,26.77
2018-05-16T19:40:24.671Z,25.30
2018-05-16T19:42:53.471Z,22.60
2018-05-16T19:45:21.014Z,24.13
2018-05-16T19:47:48.425Z,26.87
2018-05-16T19:50:15.970Z,30.23
2018-05-16T19:52:44.557Z,21.13
2018-05-16T19:55:13.104Z,26.67
2018-05-16T19:57:41.360Z,24.13
2018-05-16T20:00:08.861Z,27.40
2018-05-16T20:02:37.379Z,24.17
2018-05-16T20:05:06.557Z,23.80
2018-05-16T20:07:35.688Z,24.67
2018-05-16T20:10:03.691Z,20.53
2018-05-16T20:12:31.715Z,21.17
2018-05-16T20:14:59.483Z,17.47
2018-05-16T20:17:26.891Z,21.70
2018-05-16T20:19:54.344Z,26.07
2018-05-16T20:22:21.949Z,23.10
2018-05-16T20:24:49.369Z,25.43
2018-05-16T20:27:16.786Z,23.47
2018-05-16T20:29:44.572Z,23.63
2018-05-16T20:32:12.006Z,23.33
2018-05-16T20:34:39.430Z,25.03
2018-05-16T20:37:06.852Z,21.87
2018-05-16T20:39:34.274Z,21.33
2018-05-16T20:42:01.680Z,21.37
2018-05-16T20:44:29.107Z,28.93
2018-05-16T20:46:57.175Z,25.13
2018-05-16T20:49:24.756Z,23.00
2018-05-16T20:51:52.188Z,23.63
2018-05-16T20:54:19.624Z,24.70
2018-05-16T20:56:47.076Z,28.60
2018-05-16T20:59:14.661Z,24.07
2018-05-16T21:01:42.080Z,23.10
2018-05-16T21:04:09.505Z,27.47
2018-05-16T21:06:36.927Z,26.70
2018-05-16T21:09:05.069Z,32.47
2018-05-16T21:11:32.472Z,22.57
2018-05-16T21:13:59.923Z,23.47
2018-05-16T21:16:27.355Z,23.30
2018-05-16T21:18:54.795Z,25.13
2018-05-16T21:21:22.215Z,24.17
2018-05-16T21:23:50.015Z,28.60
2018-05-16T21:26:17.411Z,28.57
2018-05-16T21:28:44.849Z,28.40
2018-05-16T21:31:12.283Z,25.37
2018-05-16T21:33:39.683Z,21.87
2018-05-16T21:36:07.103Z,27.23
2018-05-16T21:38:34.692Z,23.53
2018-05-16T21:41:02.340Z,20.90
2018-05-16T21:43:29.756Z,23.63
2018-05-16T21:45:57.177Z,24.53
2018-05-16T21:48:24.598Z,25.63
2018-05-16T21:50:52.358Z,28.30
2018-05-16T21:53:19.755Z,25.63
2018-05-16T21:55:47.185Z,24.40
2018-05-16T21:58:14.985Z,27.43
2018-05-16T22:00:42.410Z,24.10
2018-05-16T22:03:09.824Z,30.20
2018-05-16T22:05:37.591Z,28.47
2018-05-16T22:08:05.005Z,26.57
2018-05-16T22:10:32.414Z,23.13
2018-05-16T22:12:59.847Z,27.40
2018-05-16T22:15:27.255Z,29.70
2018-05-16T22:17:54.666Z,25.40
2018-05-16T22:20:22.099Z,25.30
2018-05-16T22:22:49.529Z,27.43
2018-05-16T22:25:16.919Z,24.40
2018-05-16T22:27:44.336Z,26.83
2018-05-16T22:30:11.179Z,24.90
2018-05-16T22:32:44.260Z,30.03
2018-05-16T22:35:17.322Z,26.60
2018-05-16T22:37:50.453Z,28.87
2018-05-16T22:40:23.517Z,28.67
2018-05-16T22:42:50.382Z,27.27
2018-05-16T22:45:19.691Z,25.97
2018-05-16T22:47:47.282Z,29.80
2018-05-16T22:50:14.685Z,22.13
2018-05-16T22:52:42.104Z,25.80
2018-05-16T22:55:09.673Z,30.60
2018-05-16T22:57:37.081Z,24.13
2018-05-16T23:00:04.495Z,26.50
2018-05-16T23:02:31.924Z,23.33
2018-05-16T23:04:59.327Z,23.10
2018-05-16T23:07:26.740Z,28.13
2018-05-16T23:09:54.328Z,27.00
2018-05-16T23:12:21.728Z,24.90
2018-05-16T23:14:49.140Z,22.87
2018-05-16T23:17:16.568Z,29.40
2018-05-16T23:19:43.985Z,23.43
2018-05-16T23:22:14.287Z,30.00
2018-05-16T23:24:41.709Z,33.30
2018-05-16T23:27:09.124Z,32.87
2018-05-16T23:29:36.548Z,33.80
2018-05-16T23:32:03.977Z,33.07
2018-05-16T23:34:31.381Z,38.43
2018-05-16T23:36:58.808Z,27.67
2018-05-16T23:39:26.256Z,19.80
2018-05-16T23:41:53.664Z,24.53
2018-05-16T23:44:21.092Z,26.83
2018-05-16T23:46:48.497Z,28.60
2018-05-16T23:49:15.900Z,27.10
2018-05-16T23:51:43.340Z,32.33
2018-05-16T23:54:10.760Z,25.77
2018-05-16T23:56:38.179Z,35.33
2018-05-16T23:59:05.596Z,31.90
